Time,TemperatureF,DewpointF,PressureIn,WindDirection,WindDirectionDegrees,WindSpeedMPH,WindSpeedGustMPH,Humidity,HourlyPrecipIn,Conditions,Clouds,dailyrainin,SoftwareType,DateUTC
2013-01-25 00:14:00,30.7,30.0,29.44,SW,226,7.0,10.0,96,0.00,,,0.00,weatherlink.com 1.10,2013-01-25 09:14:00,
2013-01-25 00:28:00,30.8,30.0,29.43,SW,229,3.0,9.0,96,0.00,,,0.00,weatherlink.com 1.10,2013-01-25 09:28:00,
2013-01-25 00:44:00,30.7,30.0,29.43,WSW,244,5.0,8.0,96,0.00,,,0.00,weatherlink.com 1.10,2013-01-25 09:44:00,
2013-01-25 00:59:00,30.7,30.0,29.43,South,178,4.0,9.0,96,0.00,,,0.00,weatherlink.com 1.10,2013-01-25 09:59:00,
2013-01-25 01:14:00,30.7,30.0,29.43,WSW,240,7.0,10.0,96,0.00,,,0.00,weatherlink.com 1.10,2013-01-25 10:14:00,
2013-01-25 01:29:00,31.0,30.0,29.42,WSW,249,4.0,13.0,97,0.00,,,0.00,weatherlink.com 1.10,2013-01-25 10:29:00,
2013-01-25 01:44:00,31.0,30.0,29.42,WSW,251,10.0,13.0,97,0.00,,,0.00,weatherlink.com 1.10,2013-01-25 10:44:00,
2013-01-25 01:59:00,31.2,31.0,29.42,WSW,250,7.0,8.0,97,0.00,,,0.00,weatherlink.com 1.10,2013-01-25 10:59:00,
2013-01-25 02:14:00,31.5,31.0,29.42,SW,217,3.0,18.0,97,0.00,,,0.00,weatherlink.com 1.10,2013-01-25 11:14:00,
2013-01-25 02:29:00,31.6,31.0,29.42,SW,218,4.0,17.0,97,0.00,,,0.00,weatherlink.com 1.10,2013-01-25 11:29:00,
2013-01-25 02:44:00,31.6,31.0,29.42,SW,227,1.0,12.0,97,0.00,,,0.00,weatherlink.com 1.10,2013-01-25 11:44:00,
2013-01-25 02:59:00,31.6,31.0,29.42,West,278,9.0,10.0,97,0.00,,,0.00,weatherlink.com 1.10,2013-01-25 11:59:00,
2013-01-25 03:14:00,31.2,31.0,29.42,SW,217,12.0,18.0,97,0.00,,,0.00,weatherlink.com 1.10,2013-01-25 12:14:00,
2013-01-25 03:29:00,31.0,30.0,29.42,WSW,239,8.0,17.0,97,0.00,,,0.00,weatherlink.com 1.10,2013-01-25 12:29:00,
2013-01-25 03:44:00,30.5,30.0,29.41,SSW,209,7.0,17.0,97,0.00,,,0.00,weatherlink.com 1.10,2013-01-25 12:44:00,
2013-01-25 03:59:00,30.2,30.0,29.41,WSW,243,4.0,13.0,97,0.00,,,0.00,weatherlink.com 1.10,2013-01-25 12:59:00,
2013-01-25 04:14:00,29.8,29.0,29.41,West,259,2.0,11.0,96,0.00,,,0.00,weatherlink.com 1.10,2013-01-25 13:14:00,
2013-01-25 04:29:00,29.5,29.0,29.40,SW,231,0.0,7.0,96,0.00,,,0.00,weatherlink.com 1.10,2013-01-25 13:29:00,
2013-01-25 04:44:00,29.2,28.0,29.39,WSW,243,6.0,15.0,96,0.00,,,0.00,weatherlink.com 1.10,2013-01-25 13:44:00,
2013-01-25 05:15:00,28.5,27.0,29.39,WSW,244,8.0,15.0,95,0.00,,,0.00,weatherlink.com 1.10,2013-01-25 14:15:00,
2013-01-25 05:29:00,28.2,27.0,29.38,WSW,255,1.0,10.0,95,0.00,,,0.00,weatherlink.com 1.10,2013-01-25 14:29:00,
2013-01-25 05:45:00,27.9,27.0,29.37,WSW,257,9.0,11.0,95,0.00,,,0.00,weatherlink.com 1.10,2013-01-25 14:45:00,
2013-01-25 05:59:00,27.8,27.0,29.37,WSW,246,7.0,14.0,95,0.00,,,0.00,weatherlink.com 1.10,2013-01-25 14:59:00,
2013-01-25 06:14:00,27.5,26.0,29.37,SW,217,4.0,12.0,95,0.00,,,0.00,weatherlink.com 1.10,2013-01-25 15:14:00,
2013-01-25 06:44:00,27.1,26.0,29.38,WSW,244,5.0,9.0,95,0.00,,,0.00,weatherlink.com 1.10,2013-01-25 15:44:00,
2013-01-25 06:59:00,26.9,26.0,29.38,WSW,248,3.0,12.0,95,0.00,,,0.00,weatherlink.com 1.10,2013-01-25 15:59:00,
2013-01-25 07:15:00,26.7,25.0,29.39,WSW,252,4.0,10.0,94,0.00,,,0.00,weatherlink.com 1.10,2013-01-25 16:15:00,
2013-01-25 07:30:00,26.1,24.0,29.38,SSW,213,5.0,16.0,93,0.00,,,0.00,weatherlink.com 1.10,2013-01-25 16:30:00,
2013-01-25 07:45:00,25.8,24.0,29.38,SW,223,5.0,15.0,93,0.00,,,0.00,weatherlink.com 1.10,2013-01-25 16:45:00,
2013-01-25 08:00:00,25.4,23.0,29.39,WNW,296,4.0,13.0,92,0.00,,,0.00,weatherlink.com 1.10,2013-01-25 17:00:00,
2013-01-25 08:15:00,24.5,23.0,29.39,West,268,6.0,19.0,92,0.00,,,0.00,weatherlink.com 1.10,2013-01-25 17:15:00,
2013-01-25 08:30:00,23.7,22.0,29.39,WNW,294,5.0,14.0,92,0.00,,,0.00,weatherlink.com 1.10,2013-01-25 17:30:00,
2013-01-25 08:45:00,23.5,22.0,29.39,West,271,4.0,12.0,93,0.00,,,0.00,weatherlink.com 1.10,2013-01-25 17:45:00,
2013-01-25 09:00:00,22.5,20.0,29.40,WNW,286,1.0,16.0,91,0.00,,,0.00,weatherlink.com 1.10,2013-01-25 18:00:00,
2013-01-25 09:15:00,22.1,20.0,29.40,WSW,257,5.0,16.0,91,0.00,,,0.00,weatherlink.com 1.10,2013-01-25 18:15:00,
2013-01-25 09:30:00,21.7,19.0,29.40,SW,224,0.0,18.0,90,0.00,,,0.00,weatherlink.com 1.10,2013-01-25 18:30:00,
2013-01-25 09:45:00,21.5,19.0,29.41,West,269,1.0,9.0,91,0.00,,,0.00,weatherlink.com 1.10,2013-01-25 18:45:00,
2013-01-25 10:00:00,21.3,19.0,29.41,SW,219,1.0,8.0,91,0.00,,,0.00,weatherlink.com 1.10,2013-01-25 19:00:00,
2013-01-25 10:15:00,20.9,19.0,29.41,WSW,250,9.0,9.0,90,0.00,,,0.00,weatherlink.com 1.10,2013-01-25 19:15:00,
2013-01-25 10:30:00,20.8,19.0,29.42,SSW,200,3.0,10.0,91,0.00,,,0.00,weatherlink.com 1.10,2013-01-25 19:30:00,
2013-01-25 10:45:00,20.9,19.0,29.41,SSW,192,4.0,12.0,92,0.00,,,0.00,weatherlink.com 1.10,2013-01-25 19:45:00,
2013-01-25 11:00:00,21.1,19.0,29.41,SW,223,6.0,10.0,92,0.00,,,0.00,weatherlink.com 1.10,2013-01-25 20:00:00,
2013-01-25 11:15:00,21.3,20.0,29.41,SW,234,5.0,13.0,93,0.00,,,0.00,weatherlink.com 1.10,2013-01-25 20:15:00,
2013-01-25 11:30:00,21.4,20.0,29.41,SSW,209,7.0,11.0,93,0.00,,,0.00,weatherlink.com 1.10,2013-01-25 20:30:00,
2013-01-25 11:45:00,21.2,20.0,29.42,WSW,240,2.0,10.0,94,0.00,,,0.00,weatherlink.com 1.10,2013-01-25 20:45:00,
2013-01-25 12:00:00,21.6,20.0,29.42,SW,214,1.0,6.0,94,0.00,,,0.00,weatherlink.com 1.10,2013-01-25 21:00:00,
2013-01-25 12:15:00,21.7,20.0,29.42,SSE,159,5.0,8.0,94,0.00,,,0.00,weatherlink.com 1.10,2013-01-25 21:15:00,
2013-01-25 12:30:00,21.8,20.0,29.42,South,190,0.0,3.0,93,0.00,,,0.00,weatherlink.com 1.10,2013-01-25 21:30:00,
2013-01-25 12:45:00,22.2,21.0,29.43,South,190,0.0,1.0,93,0.00,,,0.00,weatherlink.com 1.10,2013-01-25 21:45:00,
2013-01-25 13:00:00,22.5,21.0,29.43,North,355,3.0,4.0,93,0.00,,,0.00,weatherlink.com 1.10,2013-01-25 22:00:00,
2013-01-25 13:15:00,22.3,20.0,29.43,NNE,31,3.0,10.0,91,0.00,,,0.00,weatherlink.com 1.10,2013-01-25 22:15:00,
2013-01-25 13:30:00,22.4,20.0,29.44,NNW,337,7.0,9.0,90,0.00,,,0.00,weatherlink.com 1.10,2013-01-25 22:30:00,
2013-01-25 13:45:00,22.7,20.0,29.44,NE,36,2.0,11.0,88,0.00,,,0.00,weatherlink.com 1.10,2013-01-25 22:45:00,
2013-01-25 14:00:00,23.1,19.0,29.44,NE,36,4.0,7.0,85,0.00,,,0.00,weatherlink.com 1.10,2013-01-25 23:00:00,
2013-01-25 14:16:00,22.7,19.0,29.45,ENE,74,1.0,5.0,84,0.00,,,0.00,weatherlink.com 1.10,2013-01-25 23:16:00,
2013-01-25 14:31:00,22.7,18.0,29.45,North,11,2.0,9.0,81,0.00,,,0.00,weatherlink.com 1.10,2013-01-25 23:31:00,
2013-01-25 14:45:00,20.7,16.0,29.45,NNE,15,3.0,12.0,81,0.00,,,0.00,weatherlink.com 1.10,2013-01-25 23:45:00,
2013-01-25 15:16:00,19.2,12.0,29.46,NNW,336,4.0,9.0,72,0.00,,,0.00,weatherlink.com 1.10,2013-01-26 00:16:00,
2013-01-25 15:31:00,18.7,9.0,29.46,North,355,8.0,13.0,65,0.00,,,0.00,weatherlink.com 1.10,2013-01-26 00:31:00,
2013-01-25 15:46:00,18.1,7.0,29.47,NNE,22,3.0,14.0,62,0.00,,,0.00,weatherlink.com 1.10,2013-01-26 00:46:00,
2013-01-25 16:01:00,17.5,6.0,29.47,North,9,12.0,17.0,60,0.00,,,0.00,weatherlink.com 1.10,2013-01-26 01:01:00,
2013-01-25 16:16:00,16.8,4.0,29.47,NNW,346,13.0,15.0,58,0.00,,,0.00,weatherlink.com 1.10,2013-01-26 01:16:00,
2013-01-25 16:31:00,16.1,4.0,29.48,North,360,11.0,14.0,59,0.00,,,0.00,weatherlink.com 1.10,2013-01-26 01:31:00,
2013-01-25 16:46:00,15.8,3.0,29.48,NNW,342,11.0,15.0,57,0.00,,,0.00,weatherlink.com 1.10,2013-01-26 01:46:00,
2013-01-25 17:01:00,15.1,3.0,29.49,North,350,6.0,16.0,58,0.00,,,0.00,weatherlink.com 1.10,2013-01-26 02:01:00,
2013-01-25 17:16:00,14.8,3.0,29.49,NNE,31,9.0,17.0,59,0.00,,,0.00,weatherlink.com 1.10,2013-01-26 02:16:00,
2013-01-25 17:31:00,14.5,2.0,29.49,NNW,346,10.0,18.0,59,0.00,,,0.00,weatherlink.com 1.10,2013-01-26 02:31:00,
2013-01-25 17:46:00,14.2,3.0,29.50,NNW,332,11.0,16.0,61,0.00,,,0.00,weatherlink.com 1.10,2013-01-26 02:46:00,
2013-01-25 18:01:00,13.5,3.0,29.51,NNE,17,5.0,16.0,63,0.00,,,0.00,weatherlink.com 1.10,2013-01-26 03:01:00,
2013-01-25 18:16:00,13.1,3.0,29.51,NE,39,6.0,20.0,65,0.00,,,0.00,weatherlink.com 1.10,2013-01-26 03:16:00,
2013-01-25 18:31:00,12.9,3.0,29.52,NNW,327,15.0,20.0,66,0.00,,,0.00,weatherlink.com 1.10,2013-01-26 03:31:00,
2013-01-25 18:46:00,12.7,4.0,29.51,NNE,29,5.0,15.0,67,0.00,,,0.00,weatherlink.com 1.10,2013-01-26 03:46:00,
2013-01-25 19:01:00,12.5,3.0,29.52,NNE,15,8.0,18.0,67,0.00,,,0.00,weatherlink.com 1.10,2013-01-26 04:01:00,
2013-01-25 19:16:00,12.4,3.0,29.52,NNW,346,5.0,15.0,66,0.00,,,0.00,weatherlink.com 1.10,2013-01-26 04:16:00,
2013-01-25 19:31:00,11.9,3.0,29.53,NNE,31,8.0,13.0,67,0.00,,,0.00,weatherlink.com 1.10,2013-01-26 04:31:00,
2013-01-25 19:46:00,11.2,2.0,29.54,North,5,4.0,10.0,67,0.00,,,0.00,weatherlink.com 1.10,2013-01-26 04:46:00,
2013-01-25 20:01:00,11.4,1.0,29.54,North,360,7.0,12.0,64,0.00,,,0.00,weatherlink.com 1.10,2013-01-26 05:01:00,
2013-01-25 20:16:00,11.5,0.0,29.54,North,355,9.0,12.0,60,0.00,,,0.00,weatherlink.com 1.10,2013-01-26 05:16:00,
2013-01-25 20:32:00,11.8,-1.0,29.54,NNW,328,8.0,15.0,56,0.00,,,0.00,weatherlink.com 1.10,2013-01-26 05:32:00,
2013-01-25 20:46:00,10.7,-2.0,29.54,NNW,347,9.0,16.0,58,0.00,,,0.00,weatherlink.com 1.10,2013-01-26 05:46:00,
2013-01-25 21:01:00,10.3,-2.0,29.55,NNW,348,8.0,14.0,59,0.00,,,0.00,weatherlink.com 1.10,2013-01-26 06:01:00,
2013-01-25 21:17:00,9.7,-1.0,29.55,North,355,9.0,12.0,61,0.00,,,0.00,weatherlink.com 1.10,2013-01-26 06:17:00,
2013-01-25 21:32:00,9.5,-2.0,29.56,North,360,10.0,15.0,61,0.00,,,0.00,weatherlink.com 1.10,2013-01-26 06:32:00,
2013-01-25 21:47:00,9.8,-1.0,29.57,North,5,8.0,11.0,61,0.00,,,0.00,weatherlink.com 1.10,2013-01-26 06:47:00,
2013-01-25 22:02:00,9.8,-1.0,29.57,North,5,7.0,11.0,61,0.00,,,0.00,weatherlink.com 1.10,2013-01-26 07:02:00,
2013-01-25 22:17:00,9.1,-2.0,29.57,North,355,4.0,12.0,62,0.00,,,0.00,weatherlink.com 1.10,2013-01-26 07:17:00,
2013-01-25 22:32:00,9.1,-2.0,29.57,North,355,5.0,11.0,62,0.00,,,0.00,weatherlink.com 1.10,2013-01-26 07:32:00,
2013-01-25 22:47:00,9.4,-1.0,29.57,NNE,20,7.0,12.0,62,0.00,,,0.00,weatherlink.com 1.10,2013-01-26 07:47:00,
2013-01-25 23:02:00,9.0,-2.0,29.58,NNW,336,6.0,11.0,62,0.00,,,0.00,weatherlink.com 1.10,2013-01-26 08:02:00,
2013-01-25 23:17:00,8.5,-2.0,29.59,North,360,3.0,11.0,63,0.00,,,0.00,weatherlink.com 1.10,2013-01-26 08:17:00,
2013-01-25 23:32:00,7.8,-3.0,29.60,NNE,28,2.0,5.0,63,0.00,,,0.00,weatherlink.com 1.10,2013-01-26 08:32:00,
2013-01-25 23:47:00,7.4,-3.0,29.60,NNE,28,1.0,5.0,63,0.00,,,0.00,weatherlink.com 1.10,2013-01-26 08:47:00,